VVNB

Noi Bai International Airport

Hanoi, Vietnam
TAF VVNB 221100Z 2212/2312 09005KT 6000 FEW020
Issued Valid From Valid To
Jan-22 @ 11:00 UTC
(6 hours ago)
Jan-22 @ 12:00 UTC
(5 hours ago)
Jan-23 @ 12:00 UTC
(in 19 hours)
Jan-22 @ 12:00 to Jan-23 @ 12:00
TAF VVNB 221100Z 2212/2312 09005KT 6000 FEW020
Wind Visibility Clouds
90° at 5 knots 6,003 meters
  • Few at 2,000' AGL
TAF VVNB 221100Z 2212/2312 09005KT 6000 FEW020
Issued Jan-22 @ 11:00 UTC
(6 hours ago)
Valid From Jan-22 @ 12:00 UTC
(5 hours ago)
Valid To Jan-23 @ 12:00 UTC
(in 19 hours)
Jan-22 @ 12:00 - Jan-23 @ 12:00
Wind Visibility
90° at 5 knots 6,003 meters
Clouds
  • Few at 2,000' AGL